createdAt,value
2023-03-11T00:00:25.353Z,61.20
2023-03-11T00:05:47.496Z,61.09
2023-03-11T00:11:08.174Z,61.32
2023-03-11T00:16:28.640Z,61.28
2023-03-11T00:21:49.789Z,61.66
2023-03-11T00:27:10.127Z,61.65
2023-03-11T00:32:30.816Z,61.60
2023-03-11T00:37:55.939Z,61.47
2023-03-11T00:43:17.939Z,61.53
2023-03-11T00:48:38.424Z,61.64
2023-03-11T00:54:00.809Z,61.81
2023-03-11T00:59:23.120Z,61.85
2023-03-11T01:04:43.373Z,61.59
2023-03-11T01:10:05.039Z,61.84
2023-03-11T01:15:32.589Z,62.22
2023-03-11T01:20:54.043Z,62.17
2023-03-11T01:26:15.539Z,62.02
2023-03-11T01:31:36.264Z,62.39
2023-03-11T01:36:56.992Z,62.60
2023-03-11T01:42:17.866Z,62.51
2023-03-11T01:47:39.812Z,62.57
2023-03-11T01:53:03.246Z,62.89
2023-03-11T01:58:31.059Z,62.98
2023-03-11T02:03:53.538Z,62.90
2023-03-11T02:09:15.837Z,62.92
2023-03-11T02:14:42.021Z,62.88
2023-03-11T02:20:16.550Z,62.97
2023-03-11T02:26:05.205Z,63.12
2023-03-11T02:31:26.647Z,62.83
2023-03-11T02:36:47.098Z,62.97
2023-03-11T02:42:12.852Z,63.12
2023-03-11T02:47:37.636Z,63.04
2023-03-11T02:53:00.113Z,63.17
2023-03-11T02:58:20.563Z,63.19
2023-03-11T03:03:41.194Z,63.14
2023-03-11T03:09:02.164Z,63.18
2023-03-11T03:14:23.214Z,63.16
2023-03-11T03:19:44.192Z,63.11
2023-03-11T03:25:06.994Z,63.13
2023-03-11T03:30:30.334Z,63.02
2023-03-11T03:35:51.213Z,62.58
2023-03-11T03:41:22.455Z,62.73
2023-03-11T03:46:43.412Z,62.42
2023-03-11T03:52:08.985Z,62.55
2023-03-11T03:57:30.561Z,62.68
2023-03-11T04:02:51.191Z,63.21
2023-03-11T04:08:20.449Z,63.28
2023-03-11T04:13:41.369Z,63.48
2023-03-11T04:19:02.553Z,63.47
2023-03-11T04:24:23.514Z,63.41
2023-03-11T04:29:44.249Z,63.52
2023-03-11T04:35:05.913Z,63.08
2023-03-11T04:40:27.095Z,62.87
2023-03-11T04:45:50.158Z,62.49
2023-03-11T04:51:11.186Z,62.39
2023-03-11T04:56:31.810Z,62.41
2023-03-11T05:01:53.502Z,62.13
2023-03-11T05:07:14.438Z,62.01
2023-03-11T05:12:34.901Z,61.97
2023-03-11T05:17:57.167Z,61.65
2023-03-11T05:23:18.301Z,61.81
2023-03-11T05:28:39.021Z,61.48
2023-03-11T05:34:00.553Z,61.33
2023-03-11T05:39:21.286Z,61.42
2023-03-11T05:44:42.341Z,61.25
2023-03-11T05:50:04.031Z,60.96
2023-03-11T05:55:24.686Z,60.86
2023-03-11T06:00:45.656Z,61.04
2023-03-11T06:06:08.097Z,60.95
2023-03-11T06:11:28.789Z,60.81
2023-03-11T06:16:49.348Z,60.82
2023-03-11T06:22:12.280Z,60.61
2023-03-11T06:27:32.857Z,60.52
2023-03-11T06:32:55.084Z,60.47
2023-03-11T06:38:15.795Z,60.30
2023-03-11T06:43:36.670Z,60.24
2023-03-11T06:48:58.372Z,60.00
2023-03-11T06:54:19.261Z,60.27
2023-03-11T06:59:39.768Z,60.05
2023-03-11T07:05:02.682Z,59.90
2023-03-11T07:10:24.445Z,59.63
2023-03-11T07:15:45.461Z,59.67
2023-03-11T07:21:07.823Z,59.49
2023-03-11T07:26:29.744Z,59.19
2023-03-11T07:31:50.655Z,58.95
2023-03-11T07:37:11.323Z,59.18
2023-03-11T07:42:33.845Z,58.74
2023-03-11T07:47:54.694Z,58.35
2023-03-11T07:53:15.371Z,58.29
2023-03-11T07:58:36.143Z,58.10
2023-03-11T08:03:58.691Z,57.87
2023-03-11T08:09:19.291Z,57.92
2023-03-11T08:14:39.877Z,57.69
2023-03-11T08:20:00.261Z,57.08
2023-03-11T08:25:21.878Z,56.50
2023-03-11T08:30:42.862Z,56.01
2023-03-11T08:36:03.596Z,56.01
2023-03-11T08:41:24.944Z,55.90
2023-03-11T08:46:45.748Z,55.65
2023-03-11T08:52:06.654Z,55.40
2023-03-11T08:57:27.115Z,54.77
2023-03-11T09:02:48.038Z,54.28
2023-03-11T09:08:08.442Z,53.82
2023-03-11T09:13:29.262Z,53.74
2023-03-11T09:18:49.656Z,53.55
2023-03-11T09:24:10.392Z,53.42
2023-03-11T09:29:30.848Z,53.05
2023-03-11T09:34:51.149Z,52.77
2023-03-11T09:40:16.072Z,52.40
2023-03-11T09:45:46.247Z,51.71
2023-03-11T09:51:11.761Z,52.66
2023-03-11T09:56:35.430Z,52.67
2023-03-11T10:01:55.947Z,52.67
2023-03-11T10:07:22.782Z,52.25
2023-03-11T10:12:49.366Z,53.73
2023-03-11T10:18:29.984Z,54.40
2023-03-11T10:24:04.656Z,54.45
2023-03-11T10:29:42.510Z,55.03
2023-03-11T10:35:16.615Z,53.88
2023-03-11T10:40:41.730Z,52.54
2023-03-11T10:46:14.215Z,52.34
2023-03-11T10:51:35.709Z,46.93
2023-03-11T10:57:02.737Z,35.59
2023-03-11T11:02:38.432Z,30.71
2023-03-11T11:08:03.585Z,43.57
2023-03-11T11:13:26.633Z,52.09
2023-03-11T11:18:52.790Z,58.07
2023-03-11T11:24:27.685Z,59.31
2023-03-11T11:30:05.658Z,47.86
2023-03-11T11:35:26.265Z,33.00
2023-03-11T11:40:46.889Z,43.71
2023-03-11T11:46:17.074Z,51.20
2023-03-11T11:52:02.628Z,51.27
2023-03-11T11:57:23.861Z,50.87
2023-03-11T12:03:15.936Z,57.21
2023-03-11T12:08:42.795Z,59.95
2023-03-11T12:14:19.630Z,60.86
2023-03-11T12:20:12.650Z,60.40
2023-03-11T12:26:01.536Z,59.52
2023-03-11T12:31:24.976Z,57.79
2023-03-11T12:36:48.148Z,53.88
2023-03-11T12:42:17.140Z,57.28
2023-03-11T12:47:38.219Z,55.18
2023-03-11T12:52:58.499Z,42.87
2023-03-11T12:58:45.248Z,53.48
2023-03-11T13:04:21.085Z,59.28
2023-03-11T13:09:41.544Z,60.34
2023-03-11T13:15:20.530Z,59.87
2023-03-11T13:20:44.532Z,47.03
2023-03-11T13:26:20.368Z,36.63
2023-03-11T13:32:07.395Z,31.14
2023-03-11T13:38:13.178Z,38.57
2023-03-11T13:43:35.028Z,49.71
2023-03-11T13:49:04.220Z,44.01
2023-03-11T13:54:38.300Z,48.03
2023-03-11T14:00:06.063Z,51.79
2023-03-11T14:05:37.088Z,56.22
2023-03-11T14:11:18.117Z,58.52
2023-03-11T14:16:44.310Z,57.44
2023-03-11T14:22:08.367Z,55.64
2023-03-11T14:27:29.027Z,56.46
2023-03-11T14:32:58.258Z,57.25
2023-03-11T14:38:24.245Z,57.42
2023-03-11T14:43:50.361Z,57.92
2023-03-11T14:49:20.413Z,60.32
2023-03-11T14:54:41.632Z,61.23
2023-03-11T15:00:07.764Z,61.02
2023-03-11T15:05:37.676Z,62.37
2023-03-11T15:11:04.722Z,63.82
2023-03-11T15:16:34.249Z,64.72
2023-03-11T15:22:21.357Z,65.29
2023-03-11T15:27:41.983Z,64.00
2023-03-11T15:33:19.523Z,64.12
2023-03-11T15:38:40.414Z,63.19
2023-03-11T15:44:03.044Z,61.86
2023-03-11T15:49:23.674Z,63.24
2023-03-11T15:54:54.516Z,64.45
2023-03-11T16:00:23.516Z,64.74
2023-03-11T16:05:44.492Z,64.75
2023-03-11T16:11:05.470Z,65.01
2023-03-11T16:16:26.258Z,65.10
2023-03-11T16:21:50.162Z,65.34
2023-03-11T16:27:15.052Z,65.40
2023-03-11T16:32:35.587Z,65.38
2023-03-11T16:37:56.202Z,65.06
2023-03-11T16:43:16.953Z,65.04
2023-03-11T16:48:37.580Z,64.52
2023-03-11T16:53:58.313Z,63.92
2023-03-11T16:59:18.819Z,64.28
2023-03-11T17:04:39.517Z,64.67
2023-03-11T17:10:00.370Z,64.39
2023-03-11T17:15:21.690Z,64.36
2023-03-11T17:20:43.539Z,64.40
2023-03-11T17:26:08.965Z,64.17
2023-03-11T17:31:29.689Z,64.15
2023-03-11T17:36:50.309Z,64.30
2023-03-11T17:42:10.889Z,64.42
2023-03-11T17:47:32.980Z,64.20
2023-03-11T17:52:53.842Z,64.60
2023-03-11T17:58:14.514Z,64.66
2023-03-11T18:03:35.111Z,64.74
2023-03-11T18:08:56.155Z,64.46
2023-03-11T18:14:17.108Z,64.61
2023-03-11T18:19:37.519Z,64.74
2023-03-11T18:24:58.204Z,64.90
2023-03-11T18:30:18.766Z,65.05
2023-03-11T18:35:39.158Z,65.04
2023-03-11T18:40:59.479Z,65.03
2023-03-11T18:46:19.810Z,65.07
2023-03-11T18:51:40.968Z,64.99
2023-03-11T18:57:01.628Z,65.35
2023-03-11T19:02:22.060Z,65.70
2023-03-11T19:07:42.429Z,65.42
2023-03-11T19:13:02.932Z,65.11
2023-03-11T19:18:25.193Z,64.84
2023-03-11T19:23:46.424Z,64.64
2023-03-11T19:29:08.631Z,64.47
2023-03-11T19:34:28.989Z,64.42
2023-03-11T19:39:49.610Z,64.24
2023-03-11T19:45:10.701Z,64.06
2023-03-11T19:50:31.287Z,63.38
2023-03-11T19:55:54.006Z,63.28
2023-03-11T20:01:18.675Z,62.97
2023-03-11T20:06:39.229Z,62.38
2023-03-11T20:11:59.936Z,62.07
2023-03-11T20:17:20.575Z,61.73
2023-03-11T20:22:41.216Z,61.39
2023-03-11T20:28:01.952Z,60.93
2023-03-11T20:33:22.427Z,60.98
2023-03-11T20:38:43.397Z,60.79
2023-03-11T20:44:06.486Z,60.60
2023-03-11T20:49:27.119Z,60.39
2023-03-11T20:54:48.218Z,60.18
2023-03-11T21:00:11.988Z,59.62
2023-03-11T21:05:36.777Z,59.62
2023-03-11T21:11:01.218Z,59.15
2023-03-11T21:16:22.388Z,58.65
2023-03-11T21:21:43.258Z,58.24
2023-03-11T21:27:03.972Z,58.13
2023-03-11T21:32:26.361Z,57.83
2023-03-11T21:37:47.338Z,57.71
2023-03-11T21:43:08.388Z,57.19
2023-03-11T21:48:29.397Z,56.67
2023-03-11T21:53:49.732Z,56.71
2023-03-11T21:59:10.583Z,56.77
2023-03-11T22:04:31.603Z,56.95
2023-03-11T22:09:53.383Z,56.70
2023-03-11T22:15:14.534Z,56.83
2023-03-11T22:20:35.239Z,56.86
2023-03-11T22:25:55.874Z,56.92
2023-03-11T22:31:18.536Z,56.65
2023-03-11T22:36:39.301Z,56.50
2023-03-11T22:42:00.062Z,56.34
2023-03-11T22:47:20.314Z,56.00
2023-03-11T22:52:40.731Z,55.73
2023-03-11T22:58:03.058Z,55.36
2023-03-11T23:03:23.422Z,55.49
2023-03-11T23:08:45.103Z,55.17
2023-03-11T23:14:05.349Z,54.87
2023-03-11T23:19:26.158Z,54.69
2023-03-11T23:24:47.047Z,54.95
2023-03-11T23:30:08.740Z,54.62
2023-03-11T23:35:30.411Z,54.63
2023-03-11T23:40:50.734Z,54.47
2023-03-11T23:46:11.864Z,54.42
2023-03-11T23:51:32.549Z,54.33
2023-03-11T23:56:53.225Z,54.07
